Latest Coastal Weather Observations for Alva Beach

IDQ60701

Issued at 6:32 am EST Thursday 29 September 2016 (issued every 10 minutes, with the page automatically refreshed every 10 minutes)

About coastal observations | Map of coastal stations | Coastal observations for QLD | Marine services | Other Formats
Station Details ID: 033295 Name: ALVA BEACH Lat: -19.46 Lon: 147.48 Height: 7.5 m
Data from the previous 72 hours. | See also: Recent months at Alva Beach
Date/Time
EST
Temp
°C
Wind Pressure Rain since
9am
mm
Weather Cloud Vis
km
Sea
Height
m
Swell
Dir  Spd
kts
Gust
kts
hPa Trend Height
m
Period
s
Dir
29/06:30am 25.3 NNE 16 19 1010.3 - 0.0 - - - - - - -
29/06:00am 24.8 NNE 13 17 1010.5 - 0.0 - - - - - - -
29/05:30am 24.8 NNE 13 16 1010.6 - 0.0 - - - - - - -
29/05:00am 24.8 NNE 14 17 1010.1 - 0.0 - - - - - - -
29/04:30am 24.6 NNE 14 17 1009.7 - 0.0 - - - - - - -
29/04:00am 24.7 N 13 15 1010.1 - 0.0 - - - - - - -
29/03:30am 24.8 NNE 15 17 1009.9 - 0.0 - - - - - - -
29/03:00am 24.8 NNE 14 19 1010.4 - 0.0 - - - - - - -
29/02:30am 24.8 NNE 14 17 1010.4 - 0.0 - - - - - - -
29/02:00am 24.8 NNE 16 19 1010.6 - 0.0 - - - - - - -
29/01:30am 24.8 NNE 15 18 1011.0 - 0.0 - - - - - - -
29/01:00am 24.9 NE 13 15 1011.3 - 0.0 - - - - - - -
29/12:30am 24.6 NE 15 17 1011.3 - 0.0 - - - - - - -
29/12:00am 24.7 NE 15 18 1011.9 - 0.0 - - - - - - -
 
Date/Time
EST
Temp
°C
Wind Pressure Rain since
9am
mm
Weather Cloud Vis
km
Sea
Height
m
Swell
Dir  Spd
kts
Gust
kts
hPa Trend Height
m
Period
s
Dir
28/11:30pm 24.8 NE 15 18 1011.8 - 0.0 - - - - - - -
28/11:00pm 24.7 NE 17 19 1011.6 - 0.0 - - - - - - -
28/10:30pm 24.7 ENE 15 19 1012.0 - 0.0 - - - - - - -
28/10:00pm 24.7 ENE 17 19 1011.7 - 0.0 - - - - - - -
28/09:30pm 24.8 ENE 15 18 1012.1 - 0.0 - - - - - - -
28/09:00pm 24.8 ENE 14 17 1012.2 - 0.0 - - - - - - -
28/08:30pm 25.1 ENE 15 17 1012.1 - 0.0 - - - - - - -
28/08:00pm 24.9 ENE 16 19 1012.0 - 0.0 - - - - - - -
28/07:30pm 25.0 ENE 17 20 1011.5 - 0.0 - - - - - - -
28/07:00pm 25.1 ENE 15 18 1011.6 - 0.0 - - - - - - -
28/06:30pm 25.0 ENE 15 17 1011.7 - 0.0 - - - - - - -
28/06:00pm 25.0 ENE 15 18 1011.4 - 0.0 - - - - - - -
28/05:30pm 25.3 ENE 14 17 1011.1 - 0.0 - - - - - - -
28/05:00pm 25.7 ENE 13 17 1010.8 - 0.0 - - - - - - -
28/04:30pm 26.0 ENE 13 17 1010.7 - 0.0 - - - - - - -
28/04:00pm 26.1 ENE 13 17 1010.5 - 0.0 - - - - - - -
28/03:30pm 26.4 ENE 14 18 1010.5 - 0.0 - - - - - - -
28/03:00pm 26.2 E 11 16 1010.8 - 0.0 - - - - - - -
28/02:30pm 26.6 E 11 15 1011.1 - 0.0 - - - - - - -
28/02:00pm 26.4 E 11 15 1011.3 - 0.0 - - - - - - -
28/01:30pm 27.0 ENE 11 15 1011.7 - 0.0 - - - - - - -
28/01:00pm 26.8 E 10 15 1012.4 - 0.0 - - - - - - -
28/12:30pm 26.5 E 10 14 1013.1 - 0.0 - - - - - - -
28/12:00pm 26.2 E 11 16 1013.4 - 0.0 - - - - - - -
28/11:30am 26.4 E 11 16 1014.0 - 0.0 - - - - - - -
28/11:00am 27.8 ESE 8 13 1014.6 - 0.0 - - - - - - -
28/10:30am 27.8 ESE 9 12 1014.8 - 0.0 - - - - - - -
28/10:00am 26.3 E 10 15 1014.5 - 0.0 - - - - - - -
28/09:30am 26.6 E 9 14 1014.8 - 0.0 - - - - - - -
28/09:00am 26.1 E 10 14 1014.6 - 0.0 - - - - - - -
28/08:30am 26.2 ENE 10 13 1014.5 - 0.0 - - - - - - -
28/08:00am 26.1 ENE 9 12 1014.8 - 0.0 - - - - - - -
28/07:30am 25.6 ENE 9 13 1014.3 - 0.0 - - - - - - -
28/07:00am 25.1 E 9 12 1013.9 - 0.0 - - - - - - -
28/06:30am 24.5 E 8 12 1013.6 - 0.0 - - - - - - -
28/06:00am 24.3 E 9 12 1013.0 - 0.0 - - - - - - -
28/05:30am 24.2 E 9 14 1012.6 - 0.0 - - - - - - -
28/05:00am 24.3 E 9 11 1012.4 - 0.0 - - - - - - -
28/04:30am 24.0 E 8 11 1011.9 - 0.0 - - - - - - -
28/04:00am 24.1 ENE 11 14 1011.3 - 0.0 - - - - - - -
28/03:30am 24.2 E 8 11 1011.7 - 0.0 - - - - - - -
28/03:00am 24.2 E 8 12 1012.0 - 0.0 - - - - - - -
28/02:30am 24.4 E 8 11 1012.4 - 0.0 - - - - - - -
28/02:00am 24.4 E 8 12 1012.3 - 0.0 - - - - - - -
28/01:30am 24.6 E 8 11 1012.7 - 0.0 - - - - - - -
28/01:00am 24.6 E 8 11 1013.0 - 0.0 - - - - - - -
28/12:30am 24.8 ENE 10 12 1013.0 - 0.0 - - - - - - -
28/12:00am 24.8 ENE 9 12 1013.4 - 0.0 - - - - - - -
 
Date/Time
EST
Temp
°C
Wind Pressure Rain since
9am
mm
Weather Cloud Vis
km
Sea
Height
m
Swell
Dir  Spd
kts
Gust
kts
hPa Trend Height
m
Period
s
Dir
27/11:30pm 24.9 ENE 8 11 1013.6 - 0.0 - - - - - - -
27/11:00pm 24.9 E 8 11 1013.9 - 0.0 - - - - - - -
27/10:30pm 25.1 ENE 13 15 1013.4 - 0.0 - - - - - - -
27/10:00pm 25.3 E 9 13 1014.1 - 0.0 - - - - - - -
27/09:30pm 25.4 ENE 11 14 1013.8 - 0.0 - - - - - - -
27/09:00pm 25.4 ENE 9 13 1013.8 - 0.0 - - - - - - -
27/08:30pm 25.3 ENE 9 12 1013.8 - 0.0 - - - - - - -
27/08:00pm 25.5 ENE 9 12 1013.5 - 0.0 - - - - - - -
27/07:30pm 25.7 E 7 10 1013.2 - 0.0 - - - - - - -
27/07:00pm 25.7 ENE 6 8 1012.6 - 0.0 - - - - - - -
27/06:30pm 25.8 NE 6 9 1011.9 - 0.0 - - - - - - -
27/06:00pm 26.0 NNE 9 11 1011.2 - 0.0 - - - - - - -
27/05:30pm 26.2 NNE 11 13 1010.6 - 0.0 - - - - - - -
27/05:00pm 26.5 NNE 11 13 1010.2 - 0.0 - - - - - - -
27/04:30pm 26.9 NNE 12 13 1009.9 - 0.0 - - - - - - -
27/04:00pm 27.0 NNE 12 14 1009.7 - 0.0 - - - - - - -
27/03:30pm 27.0 NNE 12 14 1009.9 - 0.0 - - - - - - -
27/03:00pm 27.2 NNE 12 13 1010.1 - 0.0 - - - - - - -
27/02:30pm 27.3 NNE 11 12 1010.5 - 0.0 - - - - - - -
27/02:00pm 27.5 NE 10 12 1011.0 - 0.0 - - - - - - -
27/01:30pm 27.5 NE 10 12 1011.4 - 0.0 - - - - - - -
27/01:00pm 26.9 NE 10 12 1011.8 - 0.0 - - - - - - -
27/12:30pm 26.9 NE 9 11 1012.6 - 0.0 - - - - - - -
27/12:00pm 26.9 NE 9 12 1013.2 - 0.0 - - - - - - -
27/11:30am 26.9 NE 8 10 1013.7 - 0.0 - - - - - - -
27/11:00am 26.8 ENE 8 11 1013.9 - 0.0 - - - - - - -
27/10:30am 26.8 ENE 8 11 1014.3 - 0.0 - - - - - - -
27/10:00am 27.4 E 6 8 1014.7 - 0.0 - - - - - - -
27/09:30am 26.3 ENE 6 9 1015.0 - 0.0 - - - - - - -
27/09:00am 25.9 E 5 7 1015.2 - 0.0 - - - - - - -
27/08:30am 26.4 ENE 4 6 1015.3 - 0.0 - - - - - - -
27/08:00am 25.3 S 4 7 1015.3 - 0.0 - - - - - - -
27/07:30am 24.0 SSW 3 6 1015.2 - 0.0 - - - - - - -
27/07:00am 22.6 SW 3 5 1014.7 - 0.0 - - - - - - -
27/06:30am 21.9 SW 4 5 1014.3 - 0.0 - - - - - - -
27/06:00am 22.4 SSW 2 3 1013.9 - 0.0 - - - - - - -
27/05:30am 22.2 S 3 5 1013.7 - 0.0 - - - - - - -
27/05:00am 22.6 SSE 2 3 1013.4 - 0.0 - - - - - - -
27/04:30am 23.3 ESE 4 6 1012.8 - 0.0 - - - - - - -
27/04:00am 23.6 E 5 7 1012.5 - 0.0 - - - - - - -
27/03:30am 23.3 E 4 6 1012.4 - 0.0 - - - - - - -
27/03:00am 23.8 E 5 7 1012.4 - 0.0 - - - - - - -
27/02:30am 23.9 E 5 7 1012.5 - 0.0 - - - - - - -
27/02:00am 24.2 E 6 8 1012.9 - 0.0 - - - - - - -
27/01:30am 24.0 ESE 4 7 1013.3 - 0.0 - - - - - - -
27/01:00am 24.2 E 6 8 1013.6 - 0.0 - - - - - - -
27/12:30am 24.5 ENE 8 10 1013.9 - 0.0 - - - - - - -
27/12:00am 24.7 ENE 9 12 1014.1 - 0.0 - - - - - - -
 
Date/Time
EST
Temp
°C
Wind Pressure Rain since
9am
mm
Weather Cloud Vis
km
Sea
Height
m
Swell
Dir  Spd
kts
Gust
kts
hPa Trend Height
m
Period
s
Dir
26/11:30pm 24.9 ENE 8 11 1014.4 - 0.0 - - - - - - -
26/11:00pm 25.0 ENE 8 11 1014.5 - 0.0 - - - - - - -
26/10:30pm 25.1 ENE 10 13 1014.3 - 0.0 - - - - - - -
26/10:00pm 24.9 ENE 10 13 1014.1 - 0.0 - - - - - - -
26/09:30pm 24.9 E 11 14 1014.0 - 0.0 - - - - - - -
26/09:00pm 25.1 ENE 13 17 1013.3 - 0.0 - - - - - - -
26/08:30pm 25.2 ENE 12 16 1013.2 - 0.0 - - - - - - -
26/08:00pm 25.4 ENE 13 16 1012.8 - 0.0 - - - - - - -
26/07:30pm 25.4 ENE 11 15 1012.6 - 0.0 - - - - - - -
26/07:00pm 25.6 ENE 10 15 1012.2 - 0.0 - - - - - - -
26/06:30pm 25.8 ENE 12 14 1011.7 - 0.0 - - - - - - -
26/06:00pm 26.1 ENE 10 13 1011.0 - 0.0 - - - - - - -
26/05:30pm 26.6 ENE 11 14 1010.5 - 0.0 - - - - - - -
26/05:00pm 27.2 NE 13 15 1009.9 - 0.0 - - - - - - -
26/04:30pm 27.6 NE 12 13 1009.5 - 0.0 - - - - - - -
26/04:00pm 27.8 NE 13 14 1009.2 - 0.0 - - - - - - -
26/03:30pm 28.4 NNE 13 14 1009.2 - 0.0 - - - - - - -
26/03:00pm 28.3 NNE 12 13 1009.4 - 0.0 - - - - - - -
26/02:30pm 28.1 NNE 11 13 1009.5 - 0.0 - - - - - - -
26/02:00pm 28.1 NNE 11 12 1009.8 - 0.0 - - - - - - -
26/01:30pm 28.5 NNE 10 11 1010.2 - 0.0 - - - - - - -
26/01:00pm 28.5 NE 10 11 1010.6 - 0.0 - - - - - - -
26/12:30pm 28.2 NNE 9 11 1011.1 - 0.0 - - - - - - -
26/12:00pm 28.0 NE 9 11 1011.6 - 0.0 - - - - - - -
26/11:30am 28.2 NE 9 11 1012.1 - 0.0 - - - - - - -
26/11:00am 28.1 ENE 9 10 1012.5 - 0.0 - - - - - - -
26/10:30am 28.7 ENE 6 9 1012.9 - 0.0 - - - - - - -
26/10:00am 29.7 SSW 5 9 1013.0 - 0.0 - - - - - - -
26/09:30am 28.8 SSE 6 10 1013.3 - 0.0 - - - - - - -
26/09:00am 28.0 S 5 9 1013.5 - 0.0 - - - - - - -
26/08:30am 26.9 SW 5 8 1013.4 - 0.0 - - - - - - -
26/08:00am 25.8 SW 6 9 1013.3 - 0.0 - - - - - - -
26/07:30am 24.3 SW 4 6 1013.1 - 0.0 - - - - - - -
26/07:00am 22.6 SW 4 5 1012.9 - 0.0 - - - - - - -

Other Formats:

Comma delimited format used in spreadsheet applications
http://www.bom.gov.au/fwo/IDQ60701/IDQ60701.95296.axf

JavaScript Object Notation format (JSON) in row-major order
http://www.bom.gov.au/fwo/IDQ60701/IDQ60701.95296.json